Time;durP1;ratioP1;P1;durP2;ratioP2;P2;SDS_P1;SDS_P2;PMS_P1;PMS_P2;Temp;Humidity;BMP_temperature;BMP_pressure;BME280_temperature;BME280_humidity;BME280_pressure;Samples;Min_cycle;Max_cycle;Signal;HPM_P1;HPM_P2
2022/03/23 00:02:16;;;;;;;20.38;11.68;;;;;;;;;;5109989;28;20062;-73
2022/03/23 00:04:45;;;;;;;19.75;11.88;;;;;;;;;;5109835;28;20035;-73
2022/03/23 00:07:11;;;;;;;19.92;12.10;;;;;;;;;;5109224;28;20034;-72
2022/03/23 00:09:36;;;;;;;19.88;11.40;;;;;;;;;;5107953;28;20419;-72
2022/03/23 00:12:02;;;;;;;20.30;11.63;;;;;;;;;;5109891;28;20047;-72
2022/03/23 00:14:29;;;;;;;22.75;12.82;;;;;;;;;;5110009;28;20031;-72
2022/03/23 00:16:55;;;;;;;21.70;11.77;;;;;;;;;;5109747;28;20031;-72
2022/03/23 00:19:21;;;;;;;24.63;12.38;;;;;;;;;;5092268;28;20052;-72
2022/03/23 00:21:47;;;;;;;26.58;12.23;;;;;;;;;;5089781;28;20059;-72
2022/03/23 00:24:12;;;;;;;19.30;11.90;;;;;;;;;;5091583;28;20052;-73
2022/03/23 00:26:39;;;;;;;25.60;12.80;;;;;;;;;;5093605;28;20082;-72
2022/03/23 00:29:05;;;;;;;20.33;12.50;;;;;;;;;;5093500;28;20035;-72
2022/03/23 00:31:30;;;;;;;20.45;11.60;;;;;;;;;;5093793;28;20028;-71
2022/03/23 00:33:57;;;;;;;23.80;12.90;;;;;;;;;;5100756;28;20130;-71
2022/03/23 00:36:24;;;;;;;23.83;12.18;;;;;;;;;;5098882;28;20027;-72
2022/03/23 00:38:53;;;;;;;25.75;12.93;;;;;;;;;;5099165;28;20028;-72
2022/03/23 00:41:20;;;;;;;21.60;12.85;;;;;;;;;;5095149;28;20043;-72
2022/03/23 00:43:47;;;;;;;24.63;13.02;;;;;;;;;;5093776;28;20032;-72
2022/03/23 00:46:15;;;;;;;24.55;12.82;;;;;;;;;;5093650;28;20035;-72
2022/03/23 00:48:41;;;;;;;22.00;12.95;;;;;;;;;;5093242;28;20074;-72
2022/03/23 00:51:07;;;;;;;24.20;12.73;;;;;;;;;;5093566;28;20028;-71
2022/03/23 00:53:36;;;;;;;23.55;12.13;;;;;;;;;;5093486;28;20035;-71
2022/03/23 00:56:02;;;;;;;22.55;12.57;;;;;;;;;;5093218;28;20046;-72
2022/03/23 00:58:28;;;;;;;20.98;12.63;;;;;;;;;;5093235;28;20035;-71
2022/03/23 01:00:53;;;;;;;28.35;13.57;;;;;;;;;;5093167;28;20047;-72
2022/03/23 01:03:19;;;;;;;24.92;14.02;;;;;;;;;;5092413;28;20064;-72
2022/03/23 01:05:45;;;;;;;25.92;13.43;;;;;;;;;;5093225;28;20506;-72
2022/03/23 01:08:11;;;;;;;25.30;14.07;;;;;;;;;;5092953;28;20461;-72
2022/03/23 01:10:37;;;;;;;23.42;12.80;;;;;;;;;;5092907;28;20063;-72
2022/03/23 01:13:03;;;;;;;24.88;14.23;;;;;;;;;;5091773;28;20028;-72
2022/03/23 01:15:29;;;;;;;25.38;13.25;;;;;;;;;;5092770;28;20491;-72
2022/03/23 01:17:55;;;;;;;26.30;14.38;;;;;;;;;;5092650;28;20020;-72
2022/03/23 01:20:21;;;;;;;27.23;13.98;;;;;;;;;;5092706;28;20028;-73
2022/03/23 01:22:48;;;;;;;24.30;14.88;;;;;;;;;;5092635;28;20051;-72
2022/03/23 01:25:14;;;;;;;26.48;14.43;;;;;;;;;;5092127;28;20020;-72
2022/03/23 01:27:41;;;;;;;26.17;13.82;;;;;;;;;;5090777;28;20028;-72
2022/03/23 01:30:11;;;;;;;22.88;14.13;;;;;;;;;;5090865;28;20035;-72
2022/03/23 01:32:38;;;;;;;24.50;13.75;;;;;;;;;;5090941;28;20605;-72
2022/03/23 01:35:05;;;;;;;26.83;13.65;;;;;;;;;;5090506;28;20040;-72
2022/03/23 01:37:31;;;;;;;20.73;12.93;;;;;;;;;;5090608;28;20028;-73
2022/03/23 01:39:57;;;;;;;22.00;13.13;;;;;;;;;;5090840;28;20039;-72
2022/03/23 01:42:26;;;;;;;24.55;13.57;;;;;;;;;;5090775;28;20035;-72
2022/03/23 01:44:52;;;;;;;24.92;14.45;;;;;;;;;;5091883;28;20485;-73
2022/03/23 01:47:18;;;;;;;23.27;13.77;;;;;;;;;;5091911;28;20059;-72
2022/03/23 01:49:49;;;;;;;26.58;14.40;;;;;;;;;;5090108;28;20040;-73
2022/03/23 01:52:18;;;;;;;31.92;14.90;;;;;;;;;;5092905;28;20028;-72
2022/03/23 01:54:44;;;;;;;24.25;13.43;;;;;;;;;;5092696;28;20032;-72
2022/03/23 01:57:13;;;;;;;25.95;13.82;;;;;;;;;;5091523;28;20441;-72
2022/03/23 01:59:39;;;;;;;24.08;13.77;;;;;;;;;;5091615;28;20035;-73
2022/03/23 02:02:08;;;;;;;23.27;13.95;;;;;;;;;;5090458;28;20047;-72
2022/03/23 02:04:34;;;;;;;23.13;13.88;;;;;;;;;;5091492;28;20023;-71
2022/03/23 02:07:01;;;;;;;25.05;13.38;;;;;;;;;;5091261;28;20032;-72
2022/03/23 02:09:27;;;;;;;25.48;14.32;;;;;;;;;;5089108;28;20039;-72
2022/03/23 02:11:54;;;;;;;24.30;13.60;;;;;;;;;;5094967;28;20031;-72
2022/03/23 02:14:20;;;;;;;25.73;15.00;;;;;;;;;;5111627;28;20035;-72
2022/03/23 02:16:48;;;;;;;28.45;15.20;;;;;;;;;;5111547;28;20028;-72
2022/03/23 02:19:15;;;;;;;25.33;14.57;;;;;;;;;;5104406;28;20020;-72
2022/03/23 02:21:42;;;;;;;26.20;15.20;;;;;;;;;;5091183;28;20035;-72
2022/03/23 02:24:09;;;;;;;25.25;14.95;;;;;;;;;;5091173;28;20043;-73
2022/03/23 02:26:37;;;;;;;26.67;15.23;;;;;;;;;;5091109;28;20039;-73
2022/03/23 02:29:04;;;;;;;22.50;14.18;;;;;;;;;;5090966;28;20020;-73
2022/03/23 02:31:31;;;;;;;29.05;14.35;;;;;;;;;;5090989;28;20027;-72
2022/03/23 02:33:57;;;;;;;25.77;14.82;;;;;;;;;;5091096;28;20028;-73
2022/03/23 02:36:23;;;;;;;26.27;14.63;;;;;;;;;;5090898;28;20024;-72
2022/03/23 02:38:49;;;;;;;24.67;13.90;;;;;;;;;;5090743;28;20066;-71
2022/03/23 02:41:15;;;;;;;28.45;15.10;;;;;;;;;;5090801;28;20484;-72
2022/03/23 02:43:41;;;;;;;27.30;15.40;;;;;;;;;;5090890;28;20111;-71
2022/03/23 02:46:19;;;;;;;27.13;14.95;;;;;;;;;;5090002;28;20046;-72
2022/03/23 02:48:51;;;;;;;31.60;15.25;;;;;;;;;;5091149;28;20113;-72
2022/03/23 02:51:18;;;;;;;26.38;14.82;;;;;;;;;;5090639;28;20495;-72
2022/03/23 03:02:18;;;;;;;28.50;14.93;;;;;;;;;;5090703;28;20481;-72
2022/03/23 03:04:44;;;;;;;28.02;15.13;;;;;;;;;;5103759;28;20039;-72
2022/03/23 03:07:10;;;;;;;30.42;15.82;;;;;;;;;;5090169;28;20220;-72
2022/03/23 03:09:36;;;;;;;23.40;14.60;;;;;;;;;;5090408;28;20115;-72
2022/03/23 03:12:02;;;;;;;27.10;14.82;;;;;;;;;;5090363;28;20047;-72
2022/03/23 03:14:29;;;;;;;26.75;15.27;;;;;;;;;;5090408;28;20520;-72
2022/03/23 03:16:55;;;;;;;28.60;14.80;;;;;;;;;;5090236;28;20390;-72
2022/03/23 03:19:21;;;;;;;28.23;16.77;;;;;;;;;;5090271;28;20019;-73
2022/03/23 03:21:47;;;;;;;27.85;15.13;;;;;;;;;;5090505;28;20066;-72
2022/03/23 03:24:13;;;;;;;32.28;15.25;;;;;;;;;;5090525;28;20032;-72
2022/03/23 03:26:39;;;;;;;26.95;16.40;;;;;;;;;;5090203;28;20044;-72
2022/03/23 03:29:05;;;;;;;25.30;15.07;;;;;;;;;;5090132;28;20127;-72
2022/03/23 03:31:31;;;;;;;27.45;15.77;;;;;;;;;;5090317;28;20030;-72
2022/03/23 03:33:57;;;;;;;30.95;15.82;;;;;;;;;;5088515;28;20036;-72
2022/03/23 03:36:24;;;;;;;28.10;15.77;;;;;;;;;;5090281;28;20020;-73
2022/03/23 03:38:51;;;;;;;31.23;14.75;;;;;;;;;;5090095;28;20024;-72
2022/03/23 03:41:17;;;;;;;30.63;15.68;;;;;;;;;;5090141;28;20051;-72
2022/03/23 03:43:44;;;;;;;28.73;16.13;;;;;;;;;;5088832;28;20036;-72
2022/03/23 03:46:10;;;;;;;26.42;14.52;;;;;;;;;;5090132;28;20024;-71
2022/03/23 03:48:37;;;;;;;27.00;15.43;;;;;;;;;;5090033;28;20032;-72
2022/03/23 03:51:05;;;;;;;26.00;15.57;;;;;;;;;;5088767;28;20040;-72
2022/03/23 03:53:31;;;;;;;29.90;15.85;;;;;;;;;;5090158;28;20024;-72
2022/03/23 03:55:58;;;;;;;27.90;15.90;;;;;;;;;;5090055;28;20020;-72
2022/03/23 03:58:24;;;;;;;25.10;15.98;;;;;;;;;;5092512;28;20037;-73
2022/03/23 04:00:50;;;;;;;26.42;14.93;;;;;;;;;;5094285;28;20465;-73
2022/03/23 04:03:16;;;;;;;27.40;15.38;;;;;;;;;;5096869;28;20036;-72
2022/03/23 04:05:42;;;;;;;29.48;15.50;;;;;;;;;;5094122;28;20020;-72
2022/03/23 04:08:08;;;;;;;27.33;14.77;;;;;;;;;;5093998;28;20028;-72
2022/03/23 04:10:35;;;;;;;29.45;15.00;;;;;;;;;;5112316;28;20038;-73
2022/03/23 04:13:02;;;;;;;34.30;15.38;;;;;;;;;;5114541;28;20024;-72
2022/03/23 04:15:28;;;;;;;27.95;15.73;;;;;;;;;;5114288;28;20026;-72
2022/03/23 04:17:54;;;;;;;25.83;14.82;;;;;;;;;;5111254;28;20027;-72
2022/03/23 04:20:22;;;;;;;26.52;15.07;;;;;;;;;;5093893;28;20558;-72
2022/03/23 04:22:49;;;;;;;29.90;16.05;;;;;;;;;;5093825;28;20039;-72
2022/03/23 04:25:16;;;;;;;29.75;14.93;;;;;;;;;;5093538;28;20019;-72
2022/03/23 04:27:55;;;;;;;27.65;15.07;;;;;;;;;;5093518;28;20032;-72
2022/03/23 04:30:23;;;;;;;27.55;14.63;;;;;;;;;;5093550;28;20380;-72
2022/03/23 04:32:50;;;;;;;29.02;15.13;;;;;;;;;;5093543;28;20043;-72
2022/03/23 04:35:18;;;;;;;26.33;15.40;;;;;;;;;;5093282;28;20039;-72
2022/03/23 04:37:44;;;;;;;26.02;14.55;;;;;;;;;;5093293;28;20526;-72
2022/03/23 04:40:14;;;;;;;28.70;15.52;;;;;;;;;;5093041;28;20035;-72
2022/03/23 04:42:40;;;;;;;27.85;15.35;;;;;;;;;;5093300;28;20385;-71
2022/03/23 04:45:08;;;;;;;25.85;14.63;;;;;;;;;;5093024;28;20031;-72
2022/03/23 04:47:34;;;;;;;24.10;14.30;;;;;;;;;;5093034;28;20027;-74
2022/03/23 04:50:01;;;;;;;28.23;15.60;;;;;;;;;;5093012;28;20357;-73
2022/03/23 04:52:26;;;;;;;30.25;15.38;;;;;;;;;;5091860;28;20043;-72
2022/03/23 04:54:56;;;;;;;27.25;15.18;;;;;;;;;;5092977;28;20071;-72
2022/03/23 04:57:23;;;;;;;27.25;15.02;;;;;;;;;;5092831;28;20028;-72
2022/03/23 04:59:49;;;;;;;27.02;15.50;;;;;;;;;;5092878;28;20031;-72
2022/03/23 05:02:15;;;;;;;26.58;15.75;;;;;;;;;;5092874;28;20067;-72
2022/03/23 05:04:41;;;;;;;25.13;14.60;;;;;;;;;;5092713;28;20801;-72
2022/03/23 05:07:07;;;;;;;28.00;15.02;;;;;;;;;;5092600;28;20060;-72
2022/03/23 05:09:33;;;;;;;26.88;15.40;;;;;;;;;;5090813;28;20496;-72
2022/03/23 05:11:58;;;;;;;27.17;15.20;;;;;;;;;;5092610;28;20055;-72
2022/03/23 05:14:24;;;;;;;29.20;15.80;;;;;;;;;;5091450;28;20059;-72
2022/03/23 05:16:50;;;;;;;27.67;15.05;;;;;;;;;;5092266;28;20055;-72
2022/03/23 05:19:16;;;;;;;31.33;16.20;;;;;;;;;;5092462;28;20126;-71
2022/03/23 05:21:42;;;;;;;32.83;16.77;;;;;;;;;;5092343;28;20115;-71
2022/03/23 05:24:08;;;;;;;27.80;15.57;;;;;;;;;;5108910;28;20031;-72
2022/03/23 05:26:34;;;;;;;30.65;15.77;;;;;;;;;;5110501;28;20105;-72
2022/03/23 05:29:00;;;;;;;33.20;17.15;;;;;;;;;;5112083;28;20646;-73
2022/03/23 05:31:26;;;;;;;31.30;16.58;;;;;;;;;;5112638;28;20038;-72
2022/03/23 05:33:51;;;;;;;28.40;16.05;;;;;;;;;;5110777;28;20122;-71
2022/03/23 05:36:18;;;;;;;27.95;15.45;;;;;;;;;;5112366;28;20051;-71
2022/03/23 05:38:44;;;;;;;33.72;17.73;;;;;;;;;;5112208;28;20023;-71
2022/03/23 05:41:10;;;;;;;36.97;20.10;;;;;;;;;;5112231;28;20062;-71
2022/03/23 05:43:35;;;;;;;34.63;18.15;;;;;;;;;;5112454;28;20106;-73
2022/03/23 05:46:01;;;;;;;36.30;20.08;;;;;;;;;;5112419;28;20479;-72
2022/03/23 05:48:27;;;;;;;28.02;16.38;;;;;;;;;;5112488;28;20118;-71
2022/03/23 05:50:54;;;;;;;31.40;15.93;;;;;;;;;;5110969;28;20047;-72
2022/03/23 05:53:19;;;;;;;31.33;15.88;;;;;;;;;;5112288;28;20042;-70
2022/03/23 05:55:45;;;;;;;31.63;16.25;;;;;;;;;;5101172;28;20048;-71
2022/03/23 05:58:11;;;;;;;25.73;15.90;;;;;;;;;;5091114;28;20504;-71
2022/03/23 06:00:38;;;;;;;28.73;15.48;;;;;;;;;;5091726;28;20031;-71
2022/03/23 06:03:04;;;;;;;28.30;14.45;;;;;;;;;;5091722;28;20032;-72
2022/03/23 06:05:30;;;;;;;23.65;15.00;;;;;;;;;;5091581;28;20028;-72
2022/03/23 06:07:56;;;;;;;26.30;15.07;;;;;;;;;;5091604;28;20574;-73
2022/03/23 06:10:22;;;;;;;26.20;14.60;;;;;;;;;;5091620;28;20136;-74
2022/03/23 06:12:48;;;;;;;25.10;14.05;;;;;;;;;;5090778;28;20051;-73
2022/03/23 06:15:14;;;;;;;23.50;13.77;;;;;;;;;;5089767;28;20093;-72
2022/03/23 06:17:40;;;;;;;23.58;14.00;;;;;;;;;;5108258;28;20051;-74
2022/03/23 06:20:06;;;;;;;24.90;14.77;;;;;;;;;;5111004;28;20028;-73
2022/03/23 06:22:32;;;;;;;27.73;15.10;;;;;;;;;;5109732;28;20034;-73
2022/03/23 06:25:20;;;;;;;24.33;13.95;;;;;;;;;;5111244;28;20119;-73
2022/03/23 06:27:46;;;;;;;22.40;13.65;;;;;;;;;;5099555;28;20032;-73
2022/03/23 06:30:12;;;;;;;28.40;16.05;;;;;;;;;;5089593;28;20024;-73
2022/03/23 06:32:38;;;;;;;23.05;15.02;;;;;;;;;;5088339;28;20032;-73
2022/03/23 06:35:04;;;;;;;27.25;15.80;;;;;;;;;;5089436;28;20027;-73
2022/03/23 06:37:30;;;;;;;25.92;16.23;;;;;;;;;;5089339;28;20032;-73
2022/03/23 06:39:57;;;;;;;25.42;16.20;;;;;;;;;;5089484;28;20024;-74
2022/03/23 06:42:23;;;;;;;31.58;16.17;;;;;;;;;;5090414;28;20504;-74
2022/03/23 06:44:50;;;;;;;25.20;15.27;;;;;;;;;;5090014;28;20047;-73
2022/03/23 06:47:16;;;;;;;26.98;15.35;;;;;;;;;;5090951;28;20465;-73
2022/03/23 06:49:42;;;;;;;24.60;15.93;;;;;;;;;;5089874;28;20512;-73
2022/03/23 06:52:08;;;;;;;29.92;15.32;;;;;;;;;;5091007;28;20038;-72
2022/03/23 06:54:34;;;;;;;28.08;15.85;;;;;;;;;;5091084;28;20388;-74
2022/03/23 06:57:00;;;;;;;25.42;15.90;;;;;;;;;;5090817;28;20052;-73
2022/03/23 06:59:26;;;;;;;24.35;14.98;;;;;;;;;;5090907;28;20566;-74
2022/03/23 07:01:52;;;;;;;25.38;16.13;;;;;;;;;;5089981;28;20123;-74
2022/03/23 07:04:17;;;;;;;28.38;16.77;;;;;;;;;;5103065;27;20045;-73
2022/03/23 07:06:43;;;;;;;33.70;16.15;;;;;;;;;;5106337;28;20126;-72
2022/03/23 07:11:54;;;;;;;27.15;15.88;;;;;;;;;;5106425;28;20468;-80
2022/03/23 07:14:20;;;;;;;26.63;16.00;;;;;;;;;;5109015;28;20043;-74
2022/03/23 07:16:46;;;;;;;23.58;15.73;;;;;;;;;;5101136;28;20034;-76
2022/03/23 07:19:13;;;;;;;22.92;15.95;;;;;;;;;;5107879;28;20066;-78
2022/03/23 07:21:39;;;;;;;27.50;16.40;;;;;;;;;;5105605;28;20519;-77
2022/03/23 07:24:05;;;;;;;28.77;15.93;;;;;;;;;;5105955;28;20028;-76
2022/03/23 07:26:39;;;;;;;24.92;16.25;;;;;;;;;;5105587;28;20035;-78
2022/03/23 07:29:05;;;;;;;27.08;16.35;;;;;;;;;;5110895;27;20042;-75
2022/03/23 07:31:31;;;;;;;29.73;16.98;;;;;;;;;;5122093;27;20063;-76
2022/03/23 07:33:57;;;;;;;26.42;17.83;;;;;;;;;;5106892;28;20430;-76
2022/03/23 07:36:24;;;;;;;29.40;18.08;;;;;;;;;;5107721;28;20103;-73
2022/03/23 07:38:51;;;;;;;26.23;17.10;;;;;;;;;;5108166;28;20031;-75
2022/03/23 07:41:17;;;;;;;29.15;18.15;;;;;;;;;;5107933;28;20036;-75
2022/03/23 07:43:44;;;;;;;39.22;18.50;;;;;;;;;;5108231;28;20139;-76
2022/03/23 07:46:10;;;;;;;32.88;16.80;;;;;;;;;;5102855;28;20474;-75
2022/03/23 07:48:36;;;;;;;26.38;17.23;;;;;;;;;;5103919;28;20038;-77
2022/03/23 07:51:02;;;;;;;26.35;17.23;;;;;;;;;;5106645;28;20024;-76
2022/03/23 07:53:28;;;;;;;28.52;17.50;;;;;;;;;;5107217;28;20030;-76
2022/03/23 07:55:54;;;;;;;29.60;18.10;;;;;;;;;;5107780;28;20047;-75
2022/03/23 07:58:22;;;;;;;25.50;17.90;;;;;;;;;;5103428;28;20035;-75
2022/03/23 08:00:48;;;;;;;33.10;18.67;;;;;;;;;;5107310;28;20129;-75
2022/03/23 08:03:14;;;;;;;26.38;17.08;;;;;;;;;;5102621;28;20027;-75
2022/03/23 08:05:43;;;;;;;28.33;18.13;;;;;;;;;;5105079;28;20027;-76
2022/03/23 08:08:09;;;;;;;25.65;17.40;;;;;;;;;;5105865;28;20019;-74
2022/03/23 08:10:43;;;;;;;28.42;18.25;;;;;;;;;;5108199;28;20032;-75
2022/03/23 08:13:10;;;;;;;32.72;18.88;;;;;;;;;;5106792;28;20023;-75
2022/03/23 08:15:36;;;;;;;28.55;18.70;;;;;;;;;;5100415;28;20035;-76
2022/03/23 08:18:03;;;;;;;30.10;19.65;;;;;;;;;;5106217;28;20489;-77
2022/03/23 08:20:38;;;;;;;32.75;19.92;;;;;;;;;;5106331;28;20492;-77
2022/03/23 08:23:06;;;;;;;28.15;18.73;;;;;;;;;;5104226;28;20023;-76
2022/03/23 08:25:33;;;;;;;30.48;18.85;;;;;;;;;;5103855;28;20036;-75
2022/03/23 08:28:00;;;;;;;32.45;18.65;;;;;;;;;;5101509;28;20039;-75
2022/03/23 08:30:26;;;;;;;33.78;19.17;;;;;;;;;;5104195;28;20036;-74
2022/03/23 08:32:53;;;;;;;27.85;18.70;;;;;;;;;;5108841;28;20024;-75
2022/03/23 08:35:19;;;;;;;33.42;18.90;;;;;;;;;;5106223;28;20396;-75
2022/03/23 08:37:45;;;;;;;27.10;18.98;;;;;;;;;;5105790;28;20031;-75
2022/03/23 08:40:12;;;;;;;27.30;18.40;;;;;;;;;;5107109;28;20028;-75
2022/03/23 08:42:37;;;;;;;28.90;19.83;;;;;;;;;;5107922;28;20023;-75
2022/03/23 08:45:05;;;;;;;36.63;19.27;;;;;;;;;;5109241;28;20046;-76
2022/03/23 08:47:31;;;;;;;27.15;18.05;;;;;;;;;;5108293;28;20047;-75
2022/03/23 08:49:57;;;;;;;30.15;19.40;;;;;;;;;;5107356;28;20054;-73
2022/03/23 08:52:24;;;;;;;30.55;18.77;;;;;;;;;;5109996;28;20531;-76
2022/03/23 08:54:50;;;;;;;26.77;18.67;;;;;;;;;;5111667;28;20031;-75
2022/03/23 08:57:16;;;;;;;30.23;18.20;;;;;;;;;;5110741;28;20019;-74
2022/03/23 08:59:42;;;;;;;30.25;19.23;;;;;;;;;;5111310;28;20035;-76
2022/03/23 09:02:08;;;;;;;27.10;18.83;;;;;;;;;;5110603;28;20047;-76
2022/03/23 09:04:34;;;;;;;29.88;19.23;;;;;;;;;;5111305;28;20035;-76
2022/03/23 09:07:00;;;;;;;24.92;17.95;;;;;;;;;;5111711;28;20114;-76
2022/03/23 09:09:26;;;;;;;30.65;18.73;;;;;;;;;;5113267;28;20038;-76
2022/03/23 09:11:52;;;;;;;27.80;18.55;;;;;;;;;;5110360;28;20078;-76
2022/03/23 09:14:18;;;;;;;25.50;19.17;;;;;;;;;;5112138;28;20055;-76
2022/03/23 09:16:45;;;;;;;28.55;18.65;;;;;;;;;;5113249;28;20376;-75
2022/03/23 09:19:12;;;;;;;26.95;18.23;;;;;;;;;;5112997;28;20051;-76
2022/03/23 09:21:38;;;;;;;28.67;17.38;;;;;;;;;;5112996;28;20381;-76
2022/03/23 09:24:05;;;;;;;34.58;19.52;;;;;;;;;;5113230;28;20024;-77
2022/03/23 09:26:31;;;;;;;24.25;18.05;;;;;;;;;;5112678;28;20484;-76
2022/03/23 09:28:58;;;;;;;26.35;18.40;;;;;;;;;;5112527;28;20066;-76
2022/03/23 09:31:23;;;;;;;22.80;17.80;;;;;;;;;;5111520;28;20032;-76
2022/03/23 09:33:49;;;;;;;25.92;16.92;;;;;;;;;;5112900;28;20503;-76
2022/03/23 09:39:01;;;;;;;22.95;16.40;;;;;;;;;;5112945;28;20032;-77
2022/03/23 09:41:27;;;;;;;24.65;15.68;;;;;;;;;;5111265;28;20408;-77
2022/03/23 09:43:54;;;;;;;24.55;16.25;;;;;;;;;;5108772;28;20040;-77
2022/03/23 09:46:20;;;;;;;25.73;16.17;;;;;;;;;;5092391;28;20481;-77
2022/03/23 09:48:46;;;;;;;22.55;15.63;;;;;;;;;;5092335;28;20034;-77
2022/03/23 09:51:14;;;;;;;20.67;14.82;;;;;;;;;;5092213;28;20047;-78
2022/03/23 09:53:40;;;;;;;22.38;15.77;;;;;;;;;;5092306;28;20043;-77
2022/03/23 09:56:06;;;;;;;25.52;15.18;;;;;;;;;;5091909;28;20032;-76
2022/03/23 09:58:32;;;;;;;23.35;14.68;;;;;;;;;;5092033;28;20051;-76
2022/03/23 10:00:59;;;;;;;22.23;15.85;;;;;;;;;;5092140;28;20035;-77
2022/03/23 10:03:46;;;;;;;22.30;15.23;;;;;;;;;;5090903;28;20043;-76
2022/03/23 10:06:50;;;;;;;23.63;14.35;;;;;;;;;;5108288;28;20127;-76
2022/03/23 10:09:44;;;;;;;22.40;14.68;;;;;;;;;;5112256;28;20050;-76
2022/03/23 10:12:22;;;;;;;19.38;14.32;;;;;;;;;;5112411;28;20380;-76
2022/03/23 10:15:09;;;;;;;22.33;13.45;;;;;;;;;;5112170;28;20502;-76
2022/03/23 10:17:54;;;;;;;21.45;13.68;;;;;;;;;;5110023;28;20058;-75
2022/03/23 10:20:20;;;;;;;18.42;13.60;;;;;;;;;;5111998;28;20035;-75
2022/03/23 10:22:48;;;;;;;22.50;13.80;;;;;;;;;;5111459;28;20032;-75
2022/03/23 10:25:15;;;;;;;23.00;14.15;;;;;;;;;;5111783;28;20023;-75
2022/03/23 10:27:43;;;;;;;20.67;13.85;;;;;;;;;;5104688;28;20023;-76
2022/03/23 10:30:09;;;;;;;21.42;13.88;;;;;;;;;;5090768;28;20039;-74
2022/03/23 10:32:36;;;;;;;17.45;13.15;;;;;;;;;;5089353;28;20043;-76
2022/03/23 10:35:04;;;;;;;21.17;14.05;;;;;;;;;;5090505;28;20055;-75
2022/03/23 10:37:32;;;;;;;21.27;14.15;;;;;;;;;;5091108;28;20473;-76
2022/03/23 10:40:10;;;;;;;18.88;14.77;;;;;;;;;;5072694;28;20373;-76
2022/03/23 10:42:41;;;;;;;20.27;14.02;;;;;;;;;;5091033;28;20031;-75
2022/03/23 10:45:23;;;;;;;22.98;14.43;;;;;;;;;;5091086;28;20035;-75
2022/03/23 10:47:49;;;;;;;20.65;14.63;;;;;;;;;;5090845;28;20024;-74
2022/03/23 10:50:21;;;;;;;20.33;13.50;;;;;;;;;;5090699;28;20119;-74
2022/03/23 10:53:07;;;;;;;19.15;14.07;;;;;;;;;;5090774;28;20024;-75
2022/03/23 10:55:38;;;;;;;21.45;14.50;;;;;;;;;;5089662;28;20032;-74
2022/03/23 10:58:04;;;;;;;60.15;15.10;;;;;;;;;;5097454;28;20026;-74
2022/03/23 11:00:32;;;;;;;23.75;13.90;;;;;;;;;;5110858;28;20027;-77
2022/03/23 11:03:00;;;;;;;18.60;13.20;;;;;;;;;;5110530;28;20362;-76
2022/03/23 11:05:32;;;;;;;23.95;14.15;;;;;;;;;;5110700;28;20042;-74
2022/03/23 11:08:25;;;;;;;25.90;14.15;;;;;;;;;;5109858;28;20038;-75
2022/03/23 11:16:47;;;;;;;18.23;13.60;;;;;;;;;;5110589;28;20023;-76
2022/03/23 11:19:24;;;;;;;21.10;13.95;;;;;;;;;;5110602;28;20027;-76
2022/03/23 11:22:16;;;;;;;19.60;13.93;;;;;;;;;;5110654;28;20028;-75
2022/03/23 11:24:45;;;;;;;18.50;13.45;;;;;;;;;;5110771;28;20031;-76
2022/03/23 11:27:18;;;;;;;19.92;12.95;;;;;;;;;;5110031;28;20027;-74
2022/03/23 11:29:49;;;;;;;18.50;11.70;;;;;;;;;;5110776;28;20042;-75
2022/03/23 11:32:28;;;;;;;19.00;12.93;;;;;;;;;;5110064;28;20499;-74
2022/03/23 11:34:56;;;;;;;21.83;12.68;;;;;;;;;;5109945;28;20468;-76
2022/03/23 11:37:23;;;;;;;13.80;11.70;;;;;;;;;;5110413;28;20043;-76
2022/03/23 11:39:53;;;;;;;21.58;12.48;;;;;;;;;;5110434;28;20031;-75
2022/03/23 11:42:21;;;;;;;17.92;12.93;;;;;;;;;;5107194;28;20031;-76
2022/03/23 11:44:47;;;;;;;16.58;11.32;;;;;;;;;;5110355;28;20054;-74
2022/03/23 11:47:28;;;;;;;16.85;11.45;;;;;;;;;;5110406;28;20499;-76
2022/03/23 11:50:03;;;;;;;15.18;10.85;;;;;;;;;;5110690;28;20046;-75
2022/03/23 11:52:58;;;;;;;15.13;10.43;;;;;;;;;;5108932;28;20031;-75
2022/03/23 11:55:38;;;;;;;15.13;10.82;;;;;;;;;;5110634;28;20023;-71
2022/03/23 11:58:15;;;;;;;14.23;9.48;;;;;;;;;;5109915;28;20039;-74
2022/03/23 12:01:11;;;;;;;12.20;9.38;;;;;;;;;;5107599;28;20456;-76
2022/03/23 12:03:40;;;;;;;12.18;8.68;;;;;;;;;;5103897;28;20054;-76
2022/03/23 12:06:17;;;;;;;13.68;9.43;;;;;;;;;;5104065;28;20122;-76
2022/03/23 12:08:47;;;;;;;14.20;9.50;;;;;;;;;;5102273;28;20042;-75
2022/03/23 12:11:45;;;;;;;13.88;10.05;;;;;;;;;;5107609;28;20677;-76
2022/03/23 12:14:26;;;;;;;12.77;10.43;;;;;;;;;;5107637;28;20027;-74
2022/03/23 12:16:52;;;;;;;;;;;;;;;;;;5108589;28;20027;-74
2022/03/23 12:19:23;;;;;;;12.80;9.30;;;;;;;;;;5096207;28;20433;-74
2022/03/23 12:21:58;;;;;;;13.68;9.98;;;;;;;;;;5099118;28;20040;-75
2022/03/23 12:24:38;;;;;;;13.88;9.40;;;;;;;;;;5112005;28;20030;-74
2022/03/23 12:27:16;;;;;;;13.00;10.20;;;;;;;;;;5112007;28;20031;-73
2022/03/23 12:29:46;;;;;;;12.20;9.60;;;;;;;;;;5112493;28;20032;-73
2022/03/23 12:32:13;;;;;;;14.18;8.75;;;;;;;;;;5111875;28;20695;-73
2022/03/23 12:34:42;;;;;;;11.20;9.10;;;;;;;;;;5112120;28;20057;-73
2022/03/23 12:37:16;;;;;;;10.77;8.68;;;;;;;;;;5111554;28;20488;-73
2022/03/23 12:40:01;;;;;;;13.77;9.05;;;;;;;;;;5111899;28;20039;-75
2022/03/23 12:42:31;;;;;;;12.13;9.35;;;;;;;;;;5110413;28;20031;-73
2022/03/23 12:45:01;;;;;;;13.05;8.65;;;;;;;;;;5111529;28;20028;-71
2022/03/23 12:47:30;;;;;;;13.05;8.82;;;;;;;;;;5131452;27;20027;-73
2022/03/23 12:58:39;;;;;;;11.32;8.18;;;;;;;;;;5134893;27;20031;-75
2022/03/23 13:01:13;;;;;;;12.93;9.15;;;;;;;;;;5131896;27;20023;-76
2022/03/23 13:03:41;;;;;;;14.07;8.60;;;;;;;;;;5131907;27;20035;-75
2022/03/23 13:06:08;;;;;;;12.40;8.20;;;;;;;;;;5131872;27;20375;-75
2022/03/23 13:08:42;;;;;;;11.88;8.82;;;;;;;;;;5131665;27;20034;-74
2022/03/23 13:11:10;;;;;;;10.63;8.73;;;;;;;;;;5130300;27;20023;-73
2022/03/23 13:13:37;;;;;;;11.95;9.43;;;;;;;;;;5131988;27;20407;-75
2022/03/23 13:16:09;;;;;;;11.18;8.68;;;;;;;;;;5113852;27;20027;-73
2022/03/23 13:18:36;;;;;;;11.93;10.07;;;;;;;;;;5090573;28;20108;-72
2022/03/23 13:21:03;;;;;;;12.23;9.70;;;;;;;;;;5090433;28;20024;-74
2022/03/23 13:23:29;;;;;;;12.90;9.43;;;;;;;;;;5090238;28;20035;-77
2022/03/23 13:26:09;;;;;;;12.50;8.93;;;;;;;;;;5090489;28;20383;-73
2022/03/23 13:28:40;;;;;;;14.57;9.10;;;;;;;;;;5104101;28;20024;-74
2022/03/23 13:31:12;;;;;;;12.93;9.98;;;;;;;;;;5110291;28;20036;-73
2022/03/23 13:33:45;;;;;;;13.45;9.32;;;;;;;;;;5111359;28;20582;-74
2022/03/23 13:36:14;;;;;;;13.30;9.68;;;;;;;;;;5110220;28;20035;-73
2022/03/23 13:38:43;;;;;;;13.93;11.25;;;;;;;;;;5111009;28;20048;-74
2022/03/23 13:43:57;;;;;;;21.05;11.57;;;;;;;;;;5090629;28;20023;-74
2022/03/23 13:46:24;;;;;;;16.52;12.95;;;;;;;;;;5112170;27;20494;-73
2022/03/23 13:49:00;;;;;;;17.73;13.25;;;;;;;;;;5131089;27;20411;-74
2022/03/23 13:51:34;;;;;;;20.50;11.20;;;;;;;;;;5130732;27;20039;-73
2022/03/23 13:54:02;;;;;;;21.95;13.20;;;;;;;;;;5131464;27;20030;-73
2022/03/23 13:56:32;;;;;;;18.08;12.23;;;;;;;;;;5131271;27;20034;-73
2022/03/23 13:58:58;;;;;;;16.38;11.55;;;;;;;;;;5131041;27;20460;-73
2022/03/23 14:01:25;;;;;;;13.48;11.30;;;;;;;;;;5130685;27;20038;-75
2022/03/23 14:03:57;;;;;;;17.50;12.00;;;;;;;;;;5130519;27;20027;-73
2022/03/23 14:06:23;;;;;;;19.02;13.02;;;;;;;;;;5130259;27;20039;-73
2022/03/23 14:08:54;;;;;;;14.38;11.55;;;;;;;;;;5118800;27;20101;-74
2022/03/23 14:11:47;;;;;;;16.77;12.15;;;;;;;;;;5106800;28;20038;-73
2022/03/23 14:14:18;;;;;;;16.85;11.98;;;;;;;;;;5089266;28;20028;-76
2022/03/23 14:17:02;;;;;;;16.20;10.75;;;;;;;;;;5103899;28;20423;-76
2022/03/23 14:19:33;;;;;;;15.07;11.55;;;;;;;;;;5108717;28;20031;-77
2022/03/23 14:22:20;;;;;;;15.32;10.73;;;;;;;;;;5108470;28;20043;-74
2022/03/23 14:24:47;;;;;;;13.23;10.07;;;;;;;;;;5108320;28;20044;-74
2022/03/23 14:27:16;;;;;;;15.45;11.30;;;;;;;;;;5108943;28;20046;-74
2022/03/23 14:30:08;;;;;;;15.57;11.43;;;;;;;;;;5109635;28;20031;-74
2022/03/23 14:32:42;;;;;;;17.13;12.10;;;;;;;;;;5107607;28;20031;-74
2022/03/23 14:35:17;;;;;;;17.45;11.88;;;;;;;;;;5107360;28;20023;-74
2022/03/23 14:37:46;;;;;;;19.65;11.40;;;;;;;;;;5102585;28;20032;-76
2022/03/23 14:40:19;;;;;;;14.98;11.38;;;;;;;;;;5107557;28;20011;-74
2022/03/23 14:42:45;;;;;;;16.70;12.43;;;;;;;;;;5108320;28;20462;-68
2022/03/23 14:45:48;;;;;;;14.50;11.98;;;;;;;;;;5102708;28;20043;-71
2022/03/23 14:48:17;;;;;;;15.02;12.40;;;;;;;;;;5098897;28;20032;-68
2022/03/23 14:50:47;;;;;;;18.77;12.73;;;;;;;;;;5101812;27;20035;-69
2022/03/23 14:53:14;;;;;;;;;;;;;;;;;;5111611;27;20039;-69
2022/03/23 14:55:40;;;;;;;18.00;11.80;;;;;;;;;;5109028;27;20287;-68
2022/03/23 14:58:06;;;;;;;20.60;12.57;;;;;;;;;;5100417;28;20028;-67
2022/03/23 15:00:34;;;;;;;17.13;11.77;;;;;;;;;;5106885;27;20049;-66